createdAt,value
2022-11-18T00:01:24.255Z,69.18
2022-11-18T00:03:52.949Z,69.39
2022-11-18T00:06:23.479Z,69.80
2022-11-18T00:08:53.365Z,70.09
2022-11-18T00:11:41.024Z,71.18
2022-11-18T00:14:23.607Z,72.63
2022-11-18T00:16:54.301Z,70.61
2022-11-18T00:19:23.288Z,70.34
2022-11-18T00:21:51.306Z,70.59
2022-11-18T00:24:20.759Z,71.20
2022-11-18T00:26:48.473Z,71.01
2022-11-18T00:29:17.015Z,70.84
2022-11-18T00:31:45.401Z,70.16
2022-11-18T00:34:15.034Z,69.61
2022-11-18T00:36:43.683Z,70.67
2022-11-18T00:39:12.285Z,69.39
2022-11-18T00:41:59.007Z,69.50
2022-11-18T00:44:26.925Z,69.19
2022-11-18T00:46:54.995Z,69.10
2022-11-18T00:49:22.919Z,69.47
2022-11-18T00:51:50.506Z,68.98
2022-11-18T00:54:18.442Z,68.76
2022-11-18T00:56:47.447Z,70.79
2022-11-18T00:59:15.276Z,71.30
2022-11-18T01:01:43.137Z,70.17
2022-11-18T01:04:10.817Z,69.49
2022-11-18T01:06:38.505Z,69.68
2022-11-18T01:09:06.395Z,71.11
2022-11-18T01:11:51.394Z,69.87
2022-11-18T01:14:20.396Z,69.49
2022-11-18T01:16:51.196Z,69.08
2022-11-18T01:19:19.363Z,68.98
2022-11-18T01:21:47.485Z,69.27
2022-11-18T01:24:15.607Z,69.47
2022-11-18T01:26:43.693Z,69.30
2022-11-18T01:29:11.515Z,69.25
2022-11-18T01:31:55.653Z,69.95
2022-11-18T01:34:29.052Z,70.23
2022-11-18T01:36:58.550Z,69.58
2022-11-18T01:39:26.142Z,69.65
2022-11-18T01:41:53.981Z,69.56
2022-11-18T01:45:10.493Z,70.62
2022-11-18T01:47:43.308Z,70.51
2022-11-18T01:50:11.869Z,70.85
2022-11-18T01:52:40.787Z,70.16
2022-11-18T01:55:15.547Z,71.77
2022-11-18T01:57:44.270Z,70.57
2022-11-18T02:00:13.643Z,70.11
2022-11-18T02:02:43.086Z,69.96
2022-11-18T02:05:12.732Z,70.63
2022-11-18T02:07:43.582Z,70.14
2022-11-18T02:10:19.630Z,71.33
2022-11-18T02:12:47.579Z,70.42
2022-11-18T02:15:15.431Z,71.30
2022-11-18T02:17:52.857Z,70.45
2022-11-18T02:20:27.978Z,70.84
2022-11-18T02:23:37.167Z,70.46
2022-11-18T02:26:47.103Z,70.56
2022-11-18T02:29:19.457Z,70.94
2022-11-18T02:31:53.419Z,69.92
2022-11-18T02:34:33.334Z,72.14
2022-11-18T02:37:07.439Z,72.93
2022-11-18T02:39:40.588Z,70.51
2022-11-18T02:42:12.941Z,70.57
2022-11-18T02:44:46.571Z,72.18
2022-11-18T02:47:16.848Z,72.08
2022-11-18T02:49:49.504Z,72.38
2022-11-18T02:52:25.061Z,72.24
2022-11-18T02:54:53.983Z,72.52
2022-11-18T02:57:23.347Z,72.43
2022-11-18T02:59:52.414Z,71.95
2022-11-18T03:02:21.430Z,70.87
2022-11-18T03:04:52.701Z,71.95
2022-11-18T03:07:26.023Z,72.81
2022-11-18T03:09:54.237Z,72.49
2022-11-18T03:12:28.843Z,72.19
2022-11-18T03:15:08.230Z,73.79
2022-11-18T03:17:47.100Z,73.67
2022-11-18T03:20:22.094Z,73.40
2022-11-18T03:22:55.749Z,74.06
2022-11-18T03:25:28.911Z,74.15
2022-11-18T03:28:04.248Z,74.50
2022-11-18T03:30:34.210Z,73.00
2022-11-18T03:33:06.886Z,72.96
2022-11-18T08:27:25.196Z,74.66
2022-11-18T08:29:52.866Z,74.26
2022-11-18T08:32:20.475Z,74.86
2022-11-18T08:34:48.050Z,74.82
2022-11-18T08:37:15.578Z,75.16
2022-11-18T08:39:43.431Z,75.09
2022-11-18T08:42:11.667Z,73.50
2022-11-18T08:44:40.632Z,73.39
2022-11-18T08:47:08.107Z,73.99
2022-11-18T08:49:35.615Z,74.04
2022-11-18T08:52:03.159Z,74.84
2022-11-18T08:54:31.591Z,74.94
2022-11-18T08:56:59.176Z,73.59
2022-11-18T08:59:33.620Z,73.29
2022-11-18T09:02:02.524Z,73.56
2022-11-18T09:04:30.177Z,73.86
2022-11-18T09:06:57.791Z,74.60
2022-11-18T09:09:25.356Z,74.25
2022-11-18T09:11:52.933Z,74.02
2022-11-18T09:17:44.407Z,73.38
2022-11-18T09:20:12.386Z,73.59
2022-11-18T09:22:40.295Z,73.87
2022-11-18T09:25:09.235Z,73.87
2022-11-18T09:27:36.903Z,74.44
2022-11-18T09:30:05.216Z,74.47
2022-11-18T09:32:33.542Z,74.83
2022-11-18T09:37:32.141Z,74.28
2022-11-18T09:39:59.750Z,74.05
2022-11-18T09:42:40.793Z,74.55
2022-11-18T09:45:23.592Z,74.17
2022-11-18T09:47:52.625Z,74.45
2022-11-18T09:53:20.522Z,75.12
2022-11-18T09:55:49.777Z,75.19
2022-11-18T09:58:22.275Z,75.34
2022-11-18T10:00:49.829Z,75.27
2022-11-18T10:03:24.421Z,75.36
2022-11-18T10:05:56.695Z,74.12
2022-11-18T10:08:29.010Z,73.88
2022-11-18T10:11:04.747Z,74.22
2022-11-18T10:13:49.939Z,74.97
2022-11-18T10:16:30.225Z,74.99
2022-11-18T10:19:06.178Z,74.48
2022-11-18T10:21:46.001Z,75.28
2022-11-18T10:24:20.737Z,74.95
2022-11-18T10:26:49.043Z,74.79
2022-11-18T10:29:16.750Z,74.63
2022-11-18T10:32:01.163Z,75.29
2022-11-18T10:34:32.217Z,74.56
2022-11-18T10:37:01.754Z,73.99
2022-11-18T10:39:30.665Z,74.27
2022-11-18T10:42:02.264Z,74.60
2022-11-18T10:44:33.226Z,74.60
2022-11-18T10:47:23.659Z,73.93
2022-11-18T10:49:51.867Z,74.58
2022-11-18T10:52:19.874Z,74.77
2022-11-18T10:55:08.236Z,74.33
2022-11-18T10:57:39.052Z,74.25
2022-11-18T11:00:09.125Z,74.18
2022-11-18T11:02:41.800Z,74.20
2022-11-18T11:05:20.080Z,73.96
2022-11-18T11:08:29.225Z,74.51
2022-11-18T11:10:57.785Z,76.34
2022-11-18T11:13:29.240Z,75.52
2022-11-18T11:16:00.380Z,75.17
2022-11-18T11:18:45.065Z,74.78
2022-11-18T11:21:13.758Z,75.11
2022-11-18T11:23:41.787Z,75.02
2022-11-18T11:29:13.179Z,75.05
2022-11-18T11:31:51.756Z,75.71
2022-11-18T11:34:45.640Z,75.24
2022-11-18T11:37:31.410Z,75.68
2022-11-18T11:40:12.652Z,75.88
2022-11-18T11:42:50.261Z,75.72
2022-11-18T11:45:20.955Z,74.91
2022-11-18T11:48:03.880Z,75.21
2022-11-18T11:51:02.003Z,75.64
2022-11-18T11:53:53.274Z,75.91
2022-11-18T11:56:33.512Z,76.38
2022-11-18T11:59:19.607Z,76.39
2022-11-18T12:02:03.349Z,75.36
2022-11-18T12:04:43.920Z,75.31
2022-11-18T12:07:16.855Z,76.16
2022-11-18T12:09:58.874Z,76.18
2022-11-18T12:12:36.638Z,76.48
2022-11-18T12:15:26.897Z,76.25
2022-11-18T12:18:03.903Z,76.42
2022-11-18T12:20:42.627Z,76.60
2022-11-18T12:23:12.224Z,76.01
2022-11-18T12:26:03.072Z,76.83
2022-11-18T12:28:33.608Z,76.17
2022-11-18T12:31:37.024Z,76.45
2022-11-18T12:34:06.346Z,76.52
2022-11-18T12:36:35.866Z,76.43
2022-11-18T12:39:45.350Z,77.24
2022-11-18T12:42:54.900Z,77.38
2022-11-18T12:45:58.996Z,77.54
2022-11-18T12:48:34.481Z,76.95
2022-11-18T12:51:03.051Z,77.38
2022-11-18T12:53:38.936Z,77.42
2022-11-18T12:56:23.444Z,77.54
2022-11-18T12:58:53.956Z,77.11
2022-11-18T13:01:23.254Z,77.65
2022-11-18T13:03:52.912Z,77.91
2022-11-18T13:06:25.820Z,77.99
2022-11-18T13:08:56.862Z,77.67
2022-11-18T13:11:43.599Z,77.94
2022-11-18T13:14:34.595Z,78.38
2022-11-18T13:17:25.233Z,77.63
2022-11-18T13:19:57.897Z,78.11
2022-11-18T13:22:43.484Z,77.46
2022-11-18T13:25:25.324Z,78.03
2022-11-18T13:28:01.483Z,77.98
2022-11-18T13:30:31.130Z,77.55
2022-11-18T13:33:00.232Z,77.76
2022-11-18T13:35:29.842Z,77.75
2022-11-18T13:37:59.984Z,78.07
2022-11-18T13:40:29.215Z,77.72
2022-11-18T13:42:57.551Z,77.88
2022-11-18T13:45:28.739Z,77.49
2022-11-18T13:48:01.612Z,78.11
2022-11-18T13:50:34.364Z,78.16
2022-11-18T13:53:10.103Z,78.13
2022-11-18T13:55:52.812Z,77.61
2022-11-18T13:58:55.683Z,78.05
2022-11-18T14:01:24.609Z,77.57
2022-11-18T14:03:54.386Z,77.63
2022-11-18T14:06:27.812Z,77.94
2022-11-18T14:09:06.563Z,76.76
2022-11-18T14:11:39.157Z,76.15
2022-11-18T14:14:07.683Z,76.44
2022-11-18T14:16:37.603Z,76.50
2022-11-18T14:19:05.877Z,76.63
2022-11-18T14:21:38.447Z,77.21
2022-11-18T14:24:06.897Z,77.01
2022-11-18T14:26:36.494Z,76.24
2022-11-18T14:29:20.802Z,76.35
2022-11-18T14:32:18.542Z,76.15
2022-11-18T14:34:47.032Z,76.12
2022-11-18T14:37:17.189Z,76.05
2022-11-18T14:39:56.870Z,75.01
2022-11-18T14:42:25.923Z,75.54
2022-11-18T14:44:53.516Z,75.60
2022-11-18T14:47:27.092Z,76.01
2022-11-18T14:49:54.695Z,76.04
2022-11-18T14:52:38.610Z,75.24
2022-11-18T14:55:06.982Z,75.09
2022-11-18T14:57:34.906Z,75.14
2022-11-18T15:00:02.835Z,75.56
2022-11-18T15:02:30.534Z,75.72
2022-11-18T15:04:58.421Z,75.32
2022-11-18T15:07:28.758Z,75.71
2022-11-18T15:09:57.780Z,75.77
2022-11-18T15:12:25.350Z,75.52
2022-11-18T15:14:52.901Z,75.00
2022-11-18T15:17:20.724Z,75.31
2022-11-18T15:19:48.358Z,75.23
2022-11-18T15:22:15.954Z,75.37
2022-11-18T15:24:43.654Z,75.32
2022-11-18T15:27:12.729Z,75.71
2022-11-18T15:29:41.526Z,75.04
2022-11-18T15:32:09.385Z,75.83
2022-11-18T15:34:37.168Z,76.15
2022-11-18T15:37:04.823Z,75.42
2022-11-18T15:39:32.533Z,76.00
2022-11-18T15:42:00.330Z,75.27
2022-11-18T15:44:29.892Z,76.07
2022-11-18T15:47:00.921Z,74.87
2022-11-18T15:49:28.710Z,74.50
2022-11-18T15:51:56.673Z,75.04
2022-11-18T15:54:24.922Z,74.68
2022-11-18T15:56:55.871Z,75.34
2022-11-18T16:12:55.617Z,75.09
2022-11-18T16:15:51.966Z,74.23
2022-11-18T16:18:45.850Z,75.67
2022-11-18T16:21:15.351Z,75.31
2022-11-18T16:23:44.965Z,75.27
2022-11-18T16:26:13.545Z,75.37
2022-11-18T16:28:43.474Z,75.76
2022-11-18T16:31:29.092Z,75.77
2022-11-18T16:33:57.871Z,75.88
2022-11-18T16:36:29.481Z,75.88
2022-11-18T16:38:58.791Z,75.24
2022-11-18T16:41:37.312Z,75.66
2022-11-18T16:44:16.800Z,75.23
2022-11-18T16:46:48.856Z,74.85
2022-11-18T16:49:22.633Z,75.30
2022-11-18T16:51:53.227Z,75.30
2022-11-18T16:54:23.346Z,75.72
2022-11-18T16:56:55.239Z,76.12
2022-11-18T16:59:35.395Z,76.40
2022-11-18T17:02:04.596Z,75.53
2022-11-18T17:04:35.843Z,75.07
2022-11-18T17:07:04.967Z,75.87
2022-11-18T17:09:34.716Z,75.95
2022-11-18T17:12:05.189Z,76.39
2022-11-18T17:14:38.443Z,76.23
2022-11-18T17:17:08.335Z,76.90
2022-11-18T17:19:40.190Z,76.54
2022-11-18T17:22:07.843Z,75.98
2022-11-18T17:24:36.352Z,76.67
2022-11-18T17:27:04.291Z,76.52
2022-11-18T17:29:34.507Z,76.59
2022-11-18T17:32:03.506Z,76.71
2022-11-18T17:34:31.191Z,76.92
2022-11-18T17:37:04.830Z,76.50
2022-11-18T17:39:35.112Z,76.31
2022-11-18T17:42:15.619Z,76.26
2022-11-18T17:44:43.953Z,76.53
2022-11-18T17:47:13.960Z,76.03
2022-11-18T17:49:43.461Z,75.73
2022-11-18T17:52:11.159Z,76.13
2022-11-18T17:54:38.811Z,76.12
2022-11-18T17:57:06.439Z,76.21
2022-11-18T17:59:34.581Z,76.26
2022-11-18T18:02:02.238Z,76.02
2022-11-18T18:04:31.658Z,76.48
2022-11-18T18:07:00.813Z,76.37
2022-11-18T18:09:30.918Z,75.87
2022-11-18T18:11:59.897Z,76.20
2022-11-18T18:14:26.691Z,75.45
2022-11-18T18:17:00.665Z,75.12
2022-11-18T18:19:29.073Z,75.15
2022-11-18T18:21:58.641Z,75.15
2022-11-18T18:24:29.141Z,74.60
2022-11-18T18:26:56.908Z,74.24
2022-11-18T18:29:25.815Z,74.82
2022-11-18T18:31:53.827Z,75.47
2022-11-18T18:34:22.519Z,74.95
2022-11-18T18:36:54.870Z,74.51
2022-11-18T18:39:24.562Z,74.54
2022-11-18T18:41:52.535Z,74.79
2022-11-18T18:44:20.745Z,74.19
2022-11-18T18:46:49.771Z,74.91
2022-11-18T18:49:20.615Z,74.75
2022-11-18T18:51:50.102Z,75.05
2022-11-18T18:54:20.301Z,74.92
2022-11-18T18:56:49.849Z,75.06
2022-11-18T18:59:17.861Z,74.62
2022-11-18T19:01:54.678Z,74.62
2022-11-18T19:04:25.710Z,74.43
2022-11-18T19:06:59.704Z,74.79
2022-11-18T19:09:31.528Z,75.51
2022-11-18T19:23:46.780Z,74.32
2022-11-18T19:59:24.702Z,75.47
2022-11-18T20:16:03.219Z,74.75
2022-11-18T20:27:15.307Z,75.74
2022-11-18T21:12:22.766Z,74.82
